sensor_id;sensor_type;location;lat;lon;timestamp;pressure;altitude;pressure_sealevel;temperature;humidity
73692;BME280;61996;49.910;35.562;2022-07-23T00:01:15;98982.19;;;20.10;65.88
73692;BME280;61996;49.910;35.562;2022-07-23T00:04:22;98981.03;;;20.12;65.23
73692;BME280;61996;49.910;35.562;2022-07-23T00:07:25;98976.50;;;20.05;65.79
73692;BME280;61996;49.910;35.562;2022-07-23T00:10:28;98984.06;;;20.17;65.50
73692;BME280;61996;49.910;35.562;2022-07-23T00:13:32;98988.41;;;20.26;64.72
73692;BME280;61996;49.910;35.562;2022-07-23T00:16:35;98979.66;;;20.00;65.89
73692;BME280;61996;49.910;35.562;2022-07-23T00:19:38;98988.69;;;20.07;65.68
73692;BME280;61996;49.910;35.562;2022-07-23T00:22:45;98990.97;;;20.44;64.42
73692;BME280;61996;49.910;35.562;2022-07-23T00:25:48;98984.09;;;20.34;64.23
73692;BME280;61996;49.910;35.562;2022-07-23T00:28:52;98988.50;;;20.09;65.22
73692;BME280;61996;49.910;35.562;2022-07-23T00:31:55;98985.06;;;20.24;64.31
73692;BME280;61996;49.910;35.562;2022-07-23T00:34:57;98990.06;;;20.19;65.13
73692;BME280;61996;49.910;35.562;2022-07-23T00:38:00;98993.56;;;20.28;64.60
73692;BME280;61996;49.910;35.562;2022-07-23T00:41:03;99000.00;;;20.01;65.04
73692;BME280;61996;49.910;35.562;2022-07-23T00:44:17;98992.81;;;19.93;65.40
73692;BME280;61996;49.910;35.562;2022-07-23T00:47:20;98994.81;;;19.91;65.62
73692;BME280;61996;49.910;35.562;2022-07-23T00:50:23;98985.69;;;20.10;64.69
73692;BME280;61996;49.910;35.562;2022-07-23T00:53:26;98996.84;;;19.63;66.35
73692;BME280;61996;49.910;35.562;2022-07-23T00:56:29;99008.31;;;19.90;66.35
73692;BME280;61996;49.910;35.562;2022-07-23T00:59:33;99011.28;;;19.87;66.02
73692;BME280;61996;49.910;35.562;2022-07-23T01:02:36;99015.78;;;19.86;65.78
73692;BME280;61996;49.910;35.562;2022-07-23T01:05:39;99015.88;;;19.68;66.35
73692;BME280;61996;49.910;35.562;2022-07-23T01:08:42;99013.97;;;19.95;65.50
73692;BME280;61996;49.910;35.562;2022-07-23T01:11:45;99005.94;;;19.87;66.22
73692;BME280;61996;49.910;35.562;2022-07-23T01:14:54;99015.97;;;19.85;66.36
73692;BME280;61996;49.910;35.562;2022-07-23T01:17:57;99014.41;;;19.74;66.60
73692;BME280;61996;49.910;35.562;2022-07-23T01:21:00;99007.19;;;19.66;67.03
73692;BME280;61996;49.910;35.562;2022-07-23T01:24:04;99023.91;;;19.68;66.37
73692;BME280;61996;49.910;35.562;2022-07-23T01:27:07;99019.59;;;19.76;66.26
73692;BME280;61996;49.910;35.562;2022-07-23T01:30:11;99022.34;;;19.66;66.24
73692;BME280;61996;49.910;35.562;2022-07-23T01:33:14;99027.06;;;19.72;66.21
73692;BME280;61996;49.910;35.562;2022-07-23T01:36:17;99029.38;;;19.67;66.35
73692;BME280;61996;49.910;35.562;2022-07-23T01:39:21;99018.75;;;19.75;66.14
73692;BME280;61996;49.910;35.562;2022-07-23T01:42:24;99039.31;;;19.83;66.04
73692;BME280;61996;49.910;35.562;2022-07-23T01:45:27;99039.25;;;19.75;66.02
73692;BME280;61996;49.910;35.562;2022-07-23T01:48:30;99032.72;;;19.43;67.58
73692;BME280;61996;49.910;35.562;2022-07-23T01:51:33;99038.53;;;19.64;66.15
73692;BME280;61996;49.910;35.562;2022-07-23T01:54:38;99045.03;;;19.62;66.44
73692;BME280;61996;49.910;35.562;2022-07-23T01:57:40;99044.22;;;19.69;65.99
73692;BME280;61996;49.910;35.562;2022-07-23T02:00:43;99034.91;;;19.48;66.92
73692;BME280;61996;49.910;35.562;2022-07-23T02:03:46;99043.41;;;19.51;66.30
73692;BME280;61996;49.910;35.562;2022-07-23T02:06:49;99046.47;;;19.56;65.78
73692;BME280;61996;49.910;35.562;2022-07-23T02:09:53;99039.72;;;19.44;66.90
73692;BME280;61996;49.910;35.562;2022-07-23T02:12:56;99046.28;;;19.32;67.26
73692;BME280;61996;49.910;35.562;2022-07-23T02:15:59;99039.81;;;19.34;67.69
73692;BME280;61996;49.910;35.562;2022-07-23T02:19:02;99040.13;;;19.31;67.71
73692;BME280;61996;49.910;35.562;2022-07-23T02:22:05;99053.59;;;19.30;67.66
73692;BME280;61996;49.910;35.562;2022-07-23T02:25:09;99060.81;;;19.37;67.21
73692;BME280;61996;49.910;35.562;2022-07-23T02:28:12;99061.16;;;19.60;66.11
73692;BME280;61996;49.910;35.562;2022-07-23T02:31:14;99063.84;;;19.60;66.63
73692;BME280;61996;49.910;35.562;2022-07-23T02:34:17;99063.16;;;19.58;66.28
73692;BME280;61996;49.910;35.562;2022-07-23T02:37:20;99069.88;;;19.62;66.14
73692;BME280;61996;49.910;35.562;2022-07-23T02:40:24;99080.84;;;19.59;66.27
73692;BME280;61996;49.910;35.562;2022-07-23T02:43:27;99076.50;;;19.58;66.70
73692;BME280;61996;49.910;35.562;2022-07-23T02:46:29;99084.50;;;19.58;66.62
73692;BME280;61996;49.910;35.562;2022-07-23T02:49:32;99084.94;;;19.54;66.88
73692;BME280;61996;49.910;35.562;2022-07-23T02:52:35;99086.75;;;19.53;67.11
73692;BME280;61996;49.910;35.562;2022-07-23T02:55:39;99092.63;;;19.57;67.17
73692;BME280;61996;49.910;35.562;2022-07-23T02:58:42;99091.25;;;19.53;67.35
73692;BME280;61996;49.910;35.562;2022-07-23T03:01:45;99093.09;;;19.70;66.49
73692;BME280;61996;49.910;35.562;2022-07-23T03:04:47;99090.25;;;19.71;66.55
73692;BME280;61996;49.910;35.562;2022-07-23T03:07:51;99097.63;;;19.78;66.47
73692;BME280;61996;49.910;35.562;2022-07-23T03:10:55;99101.75;;;19.98;65.67
73692;BME280;61996;49.910;35.562;2022-07-23T03:13:58;99106.25;;;19.97;65.69
73692;BME280;61996;49.910;35.562;2022-07-23T03:17:01;99116.38;;;20.20;64.77
73692;BME280;61996;49.910;35.562;2022-07-23T03:20:04;99109.59;;;19.99;65.70
73692;BME280;61996;49.910;35.562;2022-07-23T03:23:07;99109.16;;;20.12;65.44
73692;BME280;61996;49.910;35.562;2022-07-23T03:26:11;99122.88;;;20.17;65.26
73692;BME280;61996;49.910;35.562;2022-07-23T03:29:14;99123.16;;;20.06;66.03
73692;BME280;61996;49.910;35.562;2022-07-23T03:32:16;99124.53;;;20.18;65.67
73692;BME280;61996;49.910;35.562;2022-07-23T03:35:19;99117.06;;;20.30;65.05
73692;BME280;61996;49.910;35.562;2022-07-23T03:38:22;99118.81;;;20.05;66.64
73692;BME280;61996;49.910;35.562;2022-07-23T03:41:26;99111.50;;;20.15;66.29
73692;BME280;61996;49.910;35.562;2022-07-23T03:44:30;99123.19;;;20.14;66.45
73692;BME280;61996;49.910;35.562;2022-07-23T03:47:33;99124.31;;;20.38;65.28
73692;BME280;61996;49.910;35.562;2022-07-23T03:50:36;99125.38;;;20.45;64.52
73692;BME280;61996;49.910;35.562;2022-07-23T03:53:39;99126.28;;;20.36;65.63
73692;BME280;61996;49.910;35.562;2022-07-23T03:56:43;99124.75;;;20.25;66.69
73692;BME280;61996;49.910;35.562;2022-07-23T03:59:46;99119.41;;;20.59;64.55
73692;BME280;61996;49.910;35.562;2022-07-23T04:02:49;99120.47;;;20.40;66.00
73692;BME280;61996;49.910;35.562;2022-07-23T04:05:51;99115.78;;;20.42;65.58
73692;BME280;61996;49.910;35.562;2022-07-23T04:08:54;99121.63;;;20.38;66.29
73692;BME280;61996;49.910;35.562;2022-07-23T04:11:59;99115.19;;;20.57;65.13
73692;BME280;61996;49.910;35.562;2022-07-23T04:15:02;99120.38;;;20.58;65.15
73692;BME280;61996;49.910;35.562;2022-07-23T04:18:05;99117.03;;;20.56;65.89
73692;BME280;61996;49.910;35.562;2022-07-23T04:21:08;99121.91;;;20.61;65.43
73692;BME280;61996;49.910;35.562;2022-07-23T04:24:11;99119.72;;;20.56;66.22
73692;BME280;61996;49.910;35.562;2022-07-23T04:27:15;99119.03;;;20.54;67.24
73692;BME280;61996;49.910;35.562;2022-07-23T04:30:18;99120.78;;;20.79;64.80
73692;BME280;61996;49.910;35.562;2022-07-23T04:33:21;99127.13;;;20.78;65.35
73692;BME280;61996;49.910;35.562;2022-07-23T04:36:23;99118.13;;;20.79;65.19
73692;BME280;61996;49.910;35.562;2022-07-23T04:39:26;99118.97;;;20.80;64.99
73692;BME280;61996;49.910;35.562;2022-07-23T04:42:30;99120.78;;;20.79;65.48
73692;BME280;61996;49.910;35.562;2022-07-23T04:45:33;99115.94;;;20.91;64.89
73692;BME280;61996;49.910;35.562;2022-07-23T04:48:36;99113.44;;;20.90;64.96
73692;BME280;61996;49.910;35.562;2022-07-23T04:51:39;99120.34;;;21.00;64.98
73692;BME280;61996;49.910;35.562;2022-07-23T04:54:42;99123.81;;;20.93;64.96
73692;BME280;61996;49.910;35.562;2022-07-23T04:57:47;99126.66;;;20.99;64.65
73692;BME280;61996;49.910;35.562;2022-07-23T05:00:49;99126.50;;;21.01;64.37
73692;BME280;61996;49.910;35.562;2022-07-23T05:03:52;99120.81;;;20.96;64.62
73692;BME280;61996;49.910;35.562;2022-07-23T05:06:55;99123.81;;;20.93;64.74
73692;BME280;61996;49.910;35.562;2022-07-23T05:09:58;99126.50;;;21.09;64.45
73692;BME280;61996;49.910;35.562;2022-07-23T05:13:02;99127.34;;;21.10;64.44
73692;BME280;61996;49.910;35.562;2022-07-23T05:16:05;99122.00;;;21.18;64.43
73692;BME280;61996;49.910;35.562;2022-07-23T05:19:08;99129.84;;;21.27;63.61
73692;BME280;61996;49.910;35.562;2022-07-23T05:22:10;99128.34;;;21.25;64.35
73692;BME280;61996;49.910;35.562;2022-07-23T05:25:13;99125.03;;;21.23;64.53
73692;BME280;61996;49.910;35.562;2022-07-23T05:28:17;99120.88;;;21.37;63.68
73692;BME280;61996;49.910;35.562;2022-07-23T05:31:23;99127.72;;;21.47;63.00
73692;BME280;61996;49.910;35.562;2022-07-23T05:34:25;99128.25;;;21.43;63.21
73692;BME280;61996;49.910;35.562;2022-07-23T05:37:28;99133.25;;;21.29;63.73
73692;BME280;61996;49.910;35.562;2022-07-23T05:40:31;99128.56;;;21.31;64.11
73692;BME280;61996;49.910;35.562;2022-07-23T05:43:35;99132.41;;;21.45;63.43
73692;BME280;61996;49.910;35.562;2022-07-23T05:46:38;99127.56;;;21.57;63.13
73692;BME280;61996;49.910;35.562;2022-07-23T05:49:41;99132.91;;;21.49;64.49
73692;BME280;61996;49.910;35.562;2022-07-23T05:52:44;99127.56;;;21.49;64.39
73692;BME280;61996;49.910;35.562;2022-07-23T05:55:47;99125.69;;;21.74;63.06
73692;BME280;61996;49.910;35.562;2022-07-23T05:58:51;99126.53;;;21.74;63.15
73692;BME280;61996;49.910;35.562;2022-07-23T06:01:54;99134.88;;;21.87;62.10
73692;BME280;61996;49.910;35.562;2022-07-23T06:04:57;99130.56;;;21.70;63.37
73692;BME280;61996;49.910;35.562;2022-07-23T06:07:59;99138.03;;;21.83;63.64
73692;BME280;61996;49.910;35.562;2022-07-23T06:11:02;99133.19;;;21.86;63.43
73692;BME280;61996;49.910;35.562;2022-07-23T06:14:06;99136.84;;;22.02;62.93
73692;BME280;61996;49.910;35.562;2022-07-23T06:17:09;99132.13;;;22.04;63.10
73692;BME280;61996;49.910;35.562;2022-07-23T06:20:12;99132.16;;;22.20;62.13
73692;BME280;61996;49.910;35.562;2022-07-23T06:23:15;99130.47;;;22.19;62.25
73692;BME280;61996;49.910;35.562;2022-07-23T06:26:17;99126.75;;;22.28;62.62
73692;BME280;61996;49.910;35.562;2022-07-23T06:29:22;99129.25;;;22.30;62.30
73692;BME280;61996;49.910;35.562;2022-07-23T06:32:24;99141.13;;;22.35;62.11
73692;BME280;61996;49.910;35.562;2022-07-23T06:35:27;99131.59;;;22.33;61.78
73692;BME280;61996;49.910;35.562;2022-07-23T06:38:30;99130.03;;;22.38;62.68
73692;BME280;61996;49.910;35.562;2022-07-23T06:41:33;99129.06;;;22.39;61.78
73692;BME280;61996;49.910;35.562;2022-07-23T06:44:37;99139.09;;;22.37;62.30
73692;BME280;61996;49.910;35.562;2022-07-23T06:47:40;99139.47;;;22.34;62.63
73692;BME280;61996;49.910;35.562;2022-07-23T06:50:43;99135.41;;;22.38;63.21
73692;BME280;61996;49.910;35.562;2022-07-23T06:53:46;99137.19;;;22.54;61.97
73692;BME280;61996;49.910;35.562;2022-07-23T06:56:48;99121.59;;;22.58;61.71
73692;BME280;61996;49.910;35.562;2022-07-23T06:59:53;99131.28;;;22.59;62.20
73692;BME280;61996;49.910;35.562;2022-07-23T07:02:56;99132.81;;;22.61;61.52
73692;BME280;61996;49.910;35.562;2022-07-23T07:05:59;99131.44;;;22.65;62.97
73692;BME280;61996;49.910;35.562;2022-07-23T07:09:03;99132.06;;;22.76;60.95
73692;BME280;61996;49.910;35.562;2022-07-23T07:12:06;99127.84;;;22.81;60.93
73692;BME280;61996;49.910;35.562;2022-07-23T07:15:11;99130.72;;;22.71;61.97
73692;BME280;61996;49.910;35.562;2022-07-23T07:18:14;99129.84;;;22.79;61.75
73692;BME280;61996;49.910;35.562;2022-07-23T07:21:17;99129.03;;;22.79;62.14
73692;BME280;61996;49.910;35.562;2022-07-23T07:24:19;99128.19;;;22.78;61.49
73692;BME280;61996;49.910;35.562;2022-07-23T07:27:25;99130.13;;;22.92;60.66
73692;BME280;61996;49.910;35.562;2022-07-23T07:30:29;99122.22;;;22.99;61.58
73692;BME280;61996;49.910;35.562;2022-07-23T07:33:34;99131.09;;;23.00;60.97
73692;BME280;61996;49.910;35.562;2022-07-23T07:36:37;99116.16;;;23.05;60.34
73692;BME280;61996;49.910;35.562;2022-07-23T07:39:40;99124.69;;;23.09;60.18
73692;BME280;61996;49.910;35.562;2022-07-23T07:42:46;99134.66;;;22.92;61.07
73692;BME280;61996;49.910;35.562;2022-07-23T07:45:50;99126.38;;;23.02;60.04
73692;BME280;61996;49.910;35.562;2022-07-23T07:48:53;99123.25;;;22.98;60.67
73692;BME280;61996;49.910;35.562;2022-07-23T07:51:58;99129.31;;;23.15;59.96
73692;BME280;61996;49.910;35.562;2022-07-23T07:55:01;99126.09;;;23.19;60.79
73692;BME280;61996;49.910;35.562;2022-07-23T07:58:05;99120.28;;;23.16;60.02
73692;BME280;61996;49.910;35.562;2022-07-23T08:01:09;99122.53;;;23.27;59.74
73692;BME280;61996;49.910;35.562;2022-07-23T08:04:12;99132.59;;;23.25;59.65
73692;BME280;61996;49.910;35.562;2022-07-23T08:07:15;99134.38;;;23.33;59.26
73692;BME280;61996;49.910;35.562;2022-07-23T08:10:18;99132.84;;;23.38;59.23
73692;BME280;61996;49.910;35.562;2022-07-23T08:13:21;99134.75;;;23.30;60.82
73692;BME280;61996;49.910;35.562;2022-07-23T08:16:25;99138.66;;;23.42;59.75
73692;BME280;61996;49.910;35.562;2022-07-23T08:19:28;99135.88;;;23.35;59.04
73692;BME280;61996;49.910;35.562;2022-07-23T08:22:41;99135.53;;;23.38;61.77
73692;BME280;61996;49.910;35.562;2022-07-23T08:25:44;99139.44;;;23.50;61.51
73692;BME280;61996;49.910;35.562;2022-07-23T08:28:46;99151.47;;;23.55;60.92
73692;BME280;61996;49.910;35.562;2022-07-23T08:31:51;99144.06;;;23.57;59.14
73692;BME280;61996;49.910;35.562;2022-07-23T08:34:53;99141.38;;;23.65;61.97
73692;BME280;61996;49.910;35.562;2022-07-23T08:37:57;99147.31;;;23.75;60.13
73692;BME280;61996;49.910;35.562;2022-07-23T08:41:00;99151.00;;;23.74;60.77
73692;BME280;61996;49.910;35.562;2022-07-23T08:44:03;99140.72;;;23.77;60.31
73692;BME280;61996;49.910;35.562;2022-07-23T08:47:11;99145.25;;;23.77;59.20
73692;BME280;61996;49.910;35.562;2022-07-23T08:50:14;99136.75;;;23.73;60.91
73692;BME280;61996;49.910;35.562;2022-07-23T08:53:17;99139.53;;;23.80;58.89
73692;BME280;61996;49.910;35.562;2022-07-23T08:56:20;99149.44;;;23.79;59.54
73692;BME280;61996;49.910;35.562;2022-07-23T08:59:23;99150.28;;;23.80;59.26
73692;BME280;61996;49.910;35.562;2022-07-23T09:02:29;99147.78;;;23.78;59.19
73692;BME280;61996;49.910;35.562;2022-07-23T09:05:32;99147.13;;;23.91;59.55
73692;BME280;61996;49.910;35.562;2022-07-23T09:08:36;99149.44;;;23.79;58.70
73692;BME280;61996;49.910;35.562;2022-07-23T09:11:39;99146.19;;;23.84;58.74
73692;BME280;61996;49.910;35.562;2022-07-23T09:14:48;99140.84;;;23.99;59.33
73692;BME280;61996;49.910;35.562;2022-07-23T09:17:56;99138.09;;;24.07;58.98
73692;BME280;61996;49.910;35.562;2022-07-23T09:21:09;99136.59;;;24.04;58.99
73692;BME280;61996;49.910;35.562;2022-07-23T09:24:13;99134.38;;;24.23;58.52
73692;BME280;61996;49.910;35.562;2022-07-23T09:27:17;99137.47;;;24.49;57.17
73692;BME280;61996;49.910;35.562;2022-07-23T09:30:20;99139.94;;;26.63;50.95
73692;BME280;61996;49.910;35.562;2022-07-23T09:33:25;99145.97;;;24.89;53.14
73692;BME280;61996;49.910;35.562;2022-07-23T09:36:31;99134.81;;;23.97;56.75
73692;BME280;61996;49.910;35.562;2022-07-23T09:39:34;99139.88;;;24.44;55.81
73692;BME280;61996;49.910;35.562;2022-07-23T09:42:37;99145.66;;;26.40;50.67
73692;BME280;61996;49.910;35.562;2022-07-23T09:45:39;99144.50;;;24.36;57.64
73692;BME280;61996;49.910;35.562;2022-07-23T09:48:44;99146.13;;;23.92;57.67
73692;BME280;61996;49.910;35.562;2022-07-23T09:51:48;99141.69;;;24.29;57.88
73692;BME280;61996;49.910;35.562;2022-07-23T09:54:51;99143.09;;;27.61;46.80
73692;BME280;61996;49.910;35.562;2022-07-23T09:57:59;99146.84;;;24.75;55.56
73692;BME280;61996;49.910;35.562;2022-07-23T10:01:02;99155.78;;;24.46;55.13
73692;BME280;61996;49.910;35.562;2022-07-23T10:04:07;99155.19;;;25.37;53.53
73692;BME280;61996;49.910;35.562;2022-07-23T10:07:09;99162.09;;;31.08;39.73
73692;BME280;61996;49.910;35.562;2022-07-23T10:10:12;99154.69;;;28.92;43.64
73692;BME280;61996;49.910;35.562;2022-07-23T10:13:16;99152.97;;;26.18;50.12
73692;BME280;61996;49.910;35.562;2022-07-23T10:16:33;99157.19;;;25.07;53.52
73692;BME280;61996;49.910;35.562;2022-07-23T10:19:37;99163.13;;;24.37;55.46
73692;BME280;61996;49.910;35.562;2022-07-23T10:22:42;99164.97;;;24.22;56.91
73692;BME280;61996;49.910;35.562;2022-07-23T10:25:49;99164.75;;;24.09;56.63
73692;BME280;61996;49.910;35.562;2022-07-23T10:29:00;99159.38;;;24.68;55.62
73692;BME280;61996;49.910;35.562;2022-07-23T10:32:07;99167.28;;;31.28;39.85
73692;BME280;61996;49.910;35.562;2022-07-23T10:35:16;99159.56;;;25.02;52.84
73692;BME280;61996;49.910;35.562;2022-07-23T10:38:22;99149.66;;;25.18;53.29
73692;BME280;61996;49.910;35.562;2022-07-23T10:41:30;99146.09;;;25.17;53.20
73692;BME280;61996;49.910;35.562;2022-07-23T10:44:37;99151.81;;;25.07;53.81
73692;BME280;61996;49.910;35.562;2022-07-23T10:47:41;99142.97;;;25.13;53.23
73692;BME280;61996;49.910;35.562;2022-07-23T10:51:07;99134.94;;;24.99;53.80
73692;BME280;61996;49.910;35.562;2022-07-23T10:54:20;99140.88;;;24.94;54.00
73692;BME280;61996;49.910;35.562;2022-07-23T10:57:23;99138.94;;;24.88;54.09
73692;BME280;61996;49.910;35.562;2022-07-23T11:00:26;99132.44;;;24.82;53.85
73692;BME280;61996;49.910;35.562;2022-07-23T11:03:31;99129.53;;;24.99;53.81
73692;BME280;61996;49.910;35.562;2022-07-23T11:10:03;99131.50;;;31.43;39.44
73692;BME280;61996;49.910;35.562;2022-07-23T11:16:27;99124.38;;;31.96;36.33
73692;BME280;61996;49.910;35.562;2022-07-23T11:19:30;99129.41;;;28.67;43.35
73692;BME280;61996;49.910;35.562;2022-07-23T11:22:34;99125.66;;;29.06;42.24
73692;BME280;61996;49.910;35.562;2022-07-23T11:25:38;99127.16;;;30.64;39.16
73692;BME280;61996;49.910;35.562;2022-07-23T11:28:41;99130.44;;;31.02;37.52
73692;BME280;61996;49.910;35.562;2022-07-23T11:31:51;99136.13;;;31.31;37.14
73692;BME280;61996;49.910;35.562;2022-07-23T11:34:54;99123.16;;;31.56;37.57
73692;BME280;61996;49.910;35.562;2022-07-23T11:38:02;99123.03;;;30.24;39.55
73692;BME280;61996;49.910;35.562;2022-07-23T11:41:08;99124.44;;;29.90;40.13
73692;BME280;61996;49.910;35.562;2022-07-23T11:44:23;99134.81;;;30.55;38.96
73692;BME280;61996;49.910;35.562;2022-07-23T11:47:26;99136.84;;;30.78;39.30
73692;BME280;61996;49.910;35.562;2022-07-23T11:50:29;99123.31;;;30.90;38.11
73692;BME280;61996;49.910;35.562;2022-07-23T11:53:32;99113.69;;;28.96;41.76
73692;BME280;61996;49.910;35.562;2022-07-23T11:56:37;99118.84;;;26.80;47.17
73692;BME280;61996;49.910;35.562;2022-07-23T11:59:40;99123.59;;;27.72;44.92
73692;BME280;61996;49.910;35.562;2022-07-23T12:02:43;99107.72;;;28.09;44.10
73692;BME280;61996;49.910;35.562;2022-07-23T12:05:46;99123.16;;;26.27;48.11
73692;BME280;61996;49.910;35.562;2022-07-23T12:08:49;99121.75;;;25.96;49.39
73692;BME280;61996;49.910;35.562;2022-07-23T12:11:59;99119.88;;;29.03;42.20
73692;BME280;61996;49.910;35.562;2022-07-23T12:15:02;99116.91;;;29.42;41.31
73692;BME280;61996;49.910;35.562;2022-07-23T12:18:07;99121.13;;;30.07;39.76
73692;BME280;61996;49.910;35.562;2022-07-23T12:21:10;99113.44;;;30.03;40.86
73692;BME280;61996;49.910;35.562;2022-07-23T12:24:13;99110.25;;;29.38;41.20
73692;BME280;61996;49.910;35.562;2022-07-23T12:27:19;99110.38;;;28.93;42.44
73692;BME280;61996;49.910;35.562;2022-07-23T12:30:23;99105.53;;;29.27;41.03
73692;BME280;61996;49.910;35.562;2022-07-23T12:33:33;99110.81;;;28.77;42.24
73692;BME280;61996;49.910;35.562;2022-07-23T12:36:36;99106.22;;;28.39;43.99
73692;BME280;61996;49.910;35.562;2022-07-23T12:39:40;99104.03;;;27.64;45.09
73692;BME280;61996;49.910;35.562;2022-07-23T12:42:45;99093.22;;;27.37;45.17
73692;BME280;61996;49.910;35.562;2022-07-23T12:45:48;99095.09;;;27.17;45.62
73692;BME280;61996;49.910;35.562;2022-07-23T12:48:52;99086.94;;;27.03;46.85
73692;BME280;61996;49.910;35.562;2022-07-23T12:51:55;99087.63;;;27.06;45.89
73692;BME280;61996;49.910;35.562;2022-07-23T12:54:59;99084.91;;;27.19;46.15
73692;BME280;61996;49.910;35.562;2022-07-23T12:58:04;99080.75;;;27.16;46.79
73692;BME280;61996;49.910;35.562;2022-07-23T13:01:07;99089.41;;;28.76;40.91
73692;BME280;61996;49.910;35.562;2022-07-23T13:04:12;99088.97;;;29.17;40.30
73692;BME280;61996;49.910;35.562;2022-07-23T13:07:17;99096.19;;;28.53;41.31
73692;BME280;61996;49.910;35.562;2022-07-23T13:10:22;99089.09;;;27.54;43.14
73692;BME280;61996;49.910;35.562;2022-07-23T13:13:27;99093.09;;;28.36;41.49
73692;BME280;61996;49.910;35.562;2022-07-23T13:16:30;99083.75;;;28.77;40.18
73692;BME280;61996;49.910;35.562;2022-07-23T13:19:34;99080.00;;;29.16;40.16
73692;BME280;61996;49.910;35.562;2022-07-23T13:22:37;99086.19;;;28.92;40.04
73692;BME280;61996;49.910;35.562;2022-07-23T13:25:40;99080.41;;;28.82;40.09
73692;BME280;61996;49.910;35.562;2022-07-23T13:28:45;99085.03;;;29.13;39.42
73692;BME280;61996;49.910;35.562;2022-07-23T13:31:48;99080.47;;;29.38;38.52
73692;BME280;61996;49.910;35.562;2022-07-23T13:34:51;99090.44;;;30.13;37.10
73692;BME280;61996;49.910;35.562;2022-07-23T13:37:54;99080.97;;;28.59;40.80
73692;BME280;61996;49.910;35.562;2022-07-23T13:40:57;99079.28;;;27.86;42.29
73692;BME280;61996;49.910;35.562;2022-07-23T13:44:01;99074.56;;;27.69;42.31
73692;BME280;61996;49.910;35.562;2022-07-23T13:47:04;99067.00;;;26.85;44.54
73692;BME280;61996;49.910;35.562;2022-07-23T13:50:07;99063.16;;;26.46;45.79
73692;BME280;61996;49.910;35.562;2022-07-23T13:53:11;99070.56;;;26.37;46.32
73692;BME280;61996;49.910;35.562;2022-07-23T13:56:14;99066.06;;;26.51;46.39
73692;BME280;61996;49.910;35.562;2022-07-23T13:59:18;99066.03;;;27.12;45.38
73692;BME280;61996;49.910;35.562;2022-07-23T14:02:22;99058.69;;;26.93;45.89
73692;BME280;61996;49.910;35.562;2022-07-23T14:05:25;99070.66;;;26.57;46.75
73692;BME280;61996;49.910;35.562;2022-07-23T14:08:28;99069.81;;;26.50;47.25
73692;BME280;61996;49.910;35.562;2022-07-23T14:11:32;99083.44;;;26.42;47.40
73692;BME280;61996;49.910;35.562;2022-07-23T14:14:37;99095.84;;;26.36;47.54
73692;BME280;61996;49.910;35.562;2022-07-23T14:17:40;99090.00;;;26.33;48.65
73692;BME280;61996;49.910;35.562;2022-07-23T14:20:43;99097.88;;;26.28;49.33
73692;BME280;61996;49.910;35.562;2022-07-23T14:23:46;99087.72;;;26.30;49.69
73692;BME280;61996;49.910;35.562;2022-07-23T14:26:49;99097.66;;;26.22;50.49
73692;BME280;61996;49.910;35.562;2022-07-23T14:29:53;99116.91;;;26.19;50.40
73692;BME280;61996;49.910;35.562;2022-07-23T14:32:56;99128.28;;;26.49;50.15
73692;BME280;61996;49.910;35.562;2022-07-23T14:35:59;99143.75;;;26.06;50.98
73692;BME280;61996;49.910;35.562;2022-07-23T14:39:02;99150.69;;;26.15;51.70
73692;BME280;61996;49.910;35.562;2022-07-23T14:42:07;99108.91;;;25.98;52.37
73692;BME280;61996;49.910;35.562;2022-07-23T14:45:13;99111.22;;;25.52;54.23
73692;BME280;61996;49.910;35.562;2022-07-23T14:48:16;99104.72;;;25.89;53.92
73692;BME280;61996;49.910;35.562;2022-07-23T14:51:21;99120.13;;;26.02;55.22
73692;BME280;61996;49.910;35.562;2022-07-23T14:54:26;99109.00;;;25.83;55.53
73692;BME280;61996;49.910;35.562;2022-07-23T14:57:29;99114.19;;;25.85;55.00
73692;BME280;61996;49.910;35.562;2022-07-23T15:00:34;99115.72;;;25.94;54.56
73692;BME280;61996;49.910;35.562;2022-07-23T15:03:37;99111.44;;;26.06;55.31
73692;BME280;61996;49.910;35.562;2022-07-23T15:06:43;99112.22;;;26.00;55.86
73692;BME280;61996;49.910;35.562;2022-07-23T15:09:46;99108.53;;;25.73;56.02
73692;BME280;61996;49.910;35.562;2022-07-23T15:12:49;99119.31;;;25.73;55.98
73692;BME280;61996;49.910;35.562;2022-07-23T15:15:57;99110.50;;;25.64;55.99
73692;BME280;61996;49.910;35.562;2022-07-23T15:19:08;99105.59;;;25.47;56.64
73692;BME280;61996;49.910;35.562;2022-07-23T15:22:23;99107.56;;;25.31;57.42
73692;BME280;61996;49.910;35.562;2022-07-23T15:25:26;99116.19;;;25.27;57.23
73692;BME280;61996;49.910;35.562;2022-07-23T15:28:28;99123.88;;;25.30;57.48
73692;BME280;61996;49.910;35.562;2022-07-23T15:31:36;99124.41;;;25.40;57.88
73692;BME280;61996;49.910;35.562;2022-07-23T15:34:38;99123.19;;;25.21;58.03
73692;BME280;61996;49.910;35.562;2022-07-23T15:37:43;99114.22;;;25.14;58.01
73692;BME280;61996;49.910;35.562;2022-07-23T15:40:48;99115.06;;;25.00;57.82
73692;BME280;61996;49.910;35.562;2022-07-23T15:43:51;99128.22;;;25.09;58.12
73692;BME280;61996;49.910;35.562;2022-07-23T15:46:57;99118.19;;;25.03;57.84
73692;BME280;61996;49.910;35.562;2022-07-23T15:50:02;99115.09;;;25.21;57.58
73692;BME280;61996;49.910;35.562;2022-07-23T15:53:05;99105.81;;;25.24;57.30
73692;BME280;61996;49.910;35.562;2022-07-23T15:56:08;99107.09;;;25.28;57.79
73692;BME280;61996;49.910;35.562;2022-07-23T15:59:16;99107.34;;;25.33;57.82
73692;BME280;61996;49.910;35.562;2022-07-23T16:02:20;99108.19;;;25.33;57.04
73692;BME280;61996;49.910;35.562;2022-07-23T16:05:23;99108.78;;;23.68;63.56
73692;BME280;61996;49.910;35.562;2022-07-23T16:08:35;99122.34;;;21.72;81.02